createdAt,value
2022-12-13T00:01:21.024Z,8.48
2022-12-13T00:04:05.721Z,8.77
2022-12-13T00:06:33.136Z,8.18
2022-12-13T00:09:00.349Z,8.43
2022-12-13T00:11:27.848Z,9.27
2022-12-13T00:14:38.142Z,8.57
2022-12-13T00:17:25.041Z,8.68
2022-12-13T00:19:51.586Z,8.43
2022-12-13T00:22:18.123Z,8.40
2022-12-13T00:24:46.220Z,8.27
2022-12-13T00:27:12.915Z,8.25
2022-12-13T00:29:39.542Z,9.18
2022-12-13T00:32:06.166Z,9.10
2022-12-13T00:34:32.740Z,9.80
2022-12-13T00:36:59.603Z,9.73
2022-12-13T00:39:26.679Z,9.18
2022-12-13T00:41:53.181Z,8.40
2022-12-13T00:44:20.185Z,9.32
2022-12-13T00:46:47.199Z,9.75
2022-12-13T00:49:29.216Z,9.70
2022-12-13T00:51:55.799Z,9.02
2022-12-13T00:54:22.484Z,9.75
2022-12-13T00:56:51.219Z,9.30
2022-12-13T01:02:35.299Z,8.82
2022-12-13T01:05:01.877Z,9.05
2022-12-13T01:07:28.437Z,8.82
2022-12-13T01:09:57.489Z,9.65
2022-12-13T01:12:24.384Z,9.60
2022-12-13T01:14:55.891Z,9.07
2022-12-13T01:17:38.231Z,9.13
2022-12-13T01:20:06.300Z,10.10
2022-12-13T01:22:32.873Z,9.27
2022-12-13T01:24:59.442Z,10.45
2022-12-13T01:31:46.783Z,10.05
2022-12-13T01:34:15.442Z,9.48
2022-12-13T01:36:44.675Z,9.02
2022-12-13T01:39:15.037Z,8.90
2022-12-13T01:41:43.431Z,9.40
2022-12-13T01:44:47.602Z,9.57
2022-12-13T01:52:38.763Z,9.23
2022-12-13T01:55:07.690Z,9.38
2022-12-13T01:57:40.767Z,9.75
2022-12-13T02:00:11.255Z,9.10
2022-12-13T02:06:44.175Z,8.65
2022-12-13T02:09:11.414Z,8.27
2022-12-13T02:14:13.282Z,10.10
2022-12-13T02:16:57.140Z,10.00
2022-12-13T02:19:48.624Z,8.35
2022-12-13T02:22:18.199Z,9.45
2022-12-13T02:25:28.612Z,9.40
2022-12-13T02:28:30.453Z,8.43
2022-12-13T02:31:23.207Z,8.88
2022-12-13T02:33:49.945Z,8.75
2022-12-13T02:36:57.370Z,9.88
2022-12-13T02:39:32.292Z,9.10
2022-12-13T02:42:06.094Z,9.90
2022-12-13T02:44:42.166Z,8.50
2022-12-13T02:47:51.642Z,9.48
2022-12-13T02:50:53.376Z,9.55
2022-12-13T02:53:29.822Z,8.70
2022-12-13T02:56:00.305Z,9.23
2022-12-13T02:58:34.605Z,9.95
2022-12-13T03:01:28.044Z,9.55
2022-12-13T03:04:10.353Z,9.23
2022-12-13T03:06:58.680Z,10.48
2022-12-13T03:09:58.745Z,9.60
2022-12-13T03:12:55.282Z,9.55
2022-12-13T03:15:29.587Z,9.20
2022-12-13T03:18:01.931Z,9.93
2022-12-13T03:23:20.478Z,9.68
2022-12-13T03:25:51.143Z,9.70
2022-12-13T03:28:18.116Z,9.48
2022-12-13T03:35:34.117Z,10.75
2022-12-13T03:38:01.961Z,9.82
2022-12-13T03:40:30.236Z,10.07
2022-12-13T03:42:57.108Z,10.18
2022-12-13T03:45:24.061Z,10.13
2022-12-13T03:52:55.573Z,10.95
2022-12-13T03:53:37.444Z,13.25
2022-12-13T03:56:06.362Z,13.52
2022-12-13T03:59:05.982Z,10.98
2022-12-13T04:01:37.471Z,9.65
2022-12-13T04:21:20.643Z,10.77
2022-12-13T04:23:47.592Z,11.23
2022-12-13T04:26:32.916Z,10.90
2022-12-13T04:28:59.467Z,9.88
2022-12-13T04:31:26.028Z,11.02
2022-12-13T04:33:52.609Z,9.25
2022-12-13T04:40:27.490Z,9.65
2022-12-13T04:42:54.726Z,10.68
2022-12-13T04:45:22.765Z,9.80
2022-12-13T04:47:49.947Z,10.70
2022-12-13T04:50:17.054Z,10.45
2022-12-13T04:52:44.317Z,11.18
2022-12-13T04:57:52.199Z,9.95
2022-12-13T05:00:18.919Z,10.15
2022-12-13T05:02:45.533Z,10.02
2022-12-13T05:05:12.373Z,10.70
2022-12-13T05:07:42.612Z,10.93
2022-12-13T05:14:37.158Z,11.02
2022-12-13T08:00:28.939Z,9.98
2022-12-13T08:09:01.420Z,11.12
2022-12-13T08:11:28.183Z,11.15
2022-12-13T08:13:55.054Z,12.00
2022-12-13T08:17:11.809Z,14.02
2022-12-13T08:52:15.328Z,10.20
2022-12-13T08:54:41.902Z,10.27
2022-12-13T08:57:11.513Z,9.85
2022-12-13T08:59:38.090Z,10.07
2022-12-13T09:02:05.462Z,11.00
2022-12-13T09:15:22.308Z,7.78
2022-12-13T09:17:52.304Z,8.43
2022-12-13T09:23:01.303Z,9.43
2022-12-13T09:25:36.550Z,9.95
2022-12-13T09:28:06.317Z,7.95
2022-12-13T09:31:52.627Z,7.85
2022-12-13T09:34:46.041Z,8.65
2022-12-13T09:37:13.600Z,6.82
2022-12-13T09:39:55.517Z,7.32
2022-12-13T09:42:30.913Z,7.18
2022-12-13T09:45:04.285Z,7.55
2022-12-13T09:50:08.267Z,6.20
2022-12-13T09:52:44.205Z,6.80
2022-12-13T09:55:20.216Z,5.50
2022-12-13T09:57:47.786Z,5.90
2022-12-13T10:00:20.500Z,5.93
2022-12-13T10:02:53.580Z,5.50
2022-12-13T10:22:05.057Z,5.12
2022-12-13T10:24:53.844Z,4.97
2022-12-13T10:27:28.857Z,5.20
2022-12-13T10:34:23.356Z,4.03
2022-12-13T15:32:23.162Z,10.48
2022-12-13T15:34:51.529Z,10.35
2022-12-13T15:37:33.134Z,10.63
2022-12-13T15:40:06.756Z,10.40
2022-12-13T15:42:40.048Z,12.20
2022-12-13T15:45:20.040Z,12.80
2022-12-13T15:55:37.048Z,18.58
2022-12-13T15:58:03.940Z,23.67
2022-12-13T16:00:34.684Z,26.87
2022-12-13T16:03:16.161Z,23.08
2022-12-13T16:05:49.101Z,23.83
2022-12-13T16:08:38.137Z,20.27
2022-12-13T16:11:06.862Z,22.33
2022-12-13T16:13:37.101Z,23.70
2022-12-13T16:16:10.135Z,29.80
2022-12-13T16:40:30.019Z,27.15
2022-12-13T16:43:03.271Z,29.52
2022-12-13T16:45:42.743Z,29.45
2022-12-13T16:48:15.588Z,34.97
2022-12-13T16:50:44.393Z,31.33
2022-12-13T16:53:18.802Z,30.62
2022-12-13T16:55:46.171Z,26.60
2022-12-13T16:58:26.009Z,24.10
2022-12-13T17:00:52.859Z,24.08
2022-12-13T17:03:26.036Z,23.23
2022-12-13T17:05:58.933Z,21.73
2022-12-13T17:08:25.775Z,23.12
2022-12-13T17:10:58.227Z,22.35
2022-12-13T17:13:26.036Z,21.42
2022-12-13T17:15:59.479Z,22.40
2022-12-13T17:18:26.557Z,22.27
2022-12-13T17:20:58.421Z,24.90
2022-12-13T17:23:27.226Z,24.25
2022-12-13T17:25:58.014Z,23.90
2022-12-13T17:28:25.671Z,24.67
2022-12-13T17:30:54.841Z,25.45
2022-12-13T17:33:22.225Z,28.30
2022-12-13T17:35:48.921Z,26.55
2022-12-13T17:38:15.438Z,25.65
2022-12-13T17:40:42.171Z,25.62
2022-12-13T17:43:27.210Z,24.90
2022-12-13T17:46:06.121Z,25.10
2022-12-13T17:48:40.683Z,24.63
2022-12-13T17:51:09.281Z,25.25
2022-12-13T17:53:36.880Z,24.95
2022-12-13T17:56:06.570Z,25.80
2022-12-13T17:58:34.237Z,27.13
2022-12-13T18:01:12.219Z,27.50
2022-12-13T18:03:38.910Z,27.05
2022-12-13T18:06:07.203Z,26.70
2022-12-13T18:08:38.915Z,25.35
2022-12-13T18:13:54.894Z,28.77
2022-12-13T18:16:23.836Z,31.35
2022-12-13T18:18:54.720Z,26.95
2022-12-13T18:21:22.881Z,27.80
2022-12-13T18:26:24.921Z,26.75
2022-12-13T18:28:52.409Z,26.33
2022-12-13T18:31:24.102Z,27.02
2022-12-13T18:33:52.533Z,26.12
2022-12-13T18:36:21.688Z,31.02
2022-12-13T18:38:48.719Z,35.33
2022-12-13T18:41:18.393Z,31.95
2022-12-13T18:43:45.919Z,31.20
2022-12-13T18:46:14.075Z,30.58
2022-12-13T18:48:44.111Z,29.63
2022-12-13T18:51:10.865Z,31.83
2022-12-13T18:53:38.448Z,36.45
2022-12-13T18:56:11.671Z,46.22
2022-12-13T18:58:43.076Z,90.05
2022-12-13T19:01:12.819Z,112.07
2022-12-13T19:03:40.160Z,120.37
2022-12-13T19:06:08.072Z,103.90
2022-12-13T19:08:36.542Z,99.87
2022-12-13T19:11:06.538Z,92.10
2022-12-13T19:13:33.162Z,82.82
2022-12-13T19:16:08.444Z,67.65
2022-12-13T19:18:37.026Z,58.90
2022-12-13T19:21:07.740Z,54.63
2022-12-13T19:23:35.465Z,53.22
2022-12-13T19:26:06.728Z,52.40
2022-12-13T19:28:34.324Z,50.08
2022-12-13T19:31:11.323Z,48.33
2022-12-13T19:33:37.968Z,54.20
2022-12-13T19:36:05.967Z,53.17
2022-12-13T19:38:32.871Z,52.75
2022-12-13T19:41:01.184Z,50.45
2022-12-13T19:43:28.487Z,50.97
2022-12-13T19:45:55.271Z,52.60
2022-12-13T19:56:27.354Z,62.75
2022-12-13T19:58:54.335Z,63.83
2022-12-13T20:01:21.073Z,61.90
2022-12-13T20:03:48.079Z,60.20
2022-12-13T20:06:20.095Z,59.78
2022-12-13T20:08:47.034Z,54.40
2022-12-13T20:11:17.180Z,54.17
2022-12-13T20:13:43.811Z,48.30
2022-12-13T20:16:17.312Z,44.83
2022-12-13T20:18:44.036Z,43.33
2022-12-13T20:21:13.054Z,43.22
2022-12-13T20:23:42.247Z,42.53
2022-12-13T20:26:19.398Z,42.97
2022-12-13T20:28:46.361Z,44.22
2022-12-13T20:31:16.522Z,46.17
2022-12-13T20:33:43.098Z,48.83
2022-12-13T20:36:26.359Z,48.58
2022-12-13T20:38:56.304Z,46.22
2022-12-13T20:41:42.832Z,48.85
2022-12-13T20:44:12.264Z,48.30
2022-12-13T20:46:39.703Z,50.30
2022-12-13T20:49:08.765Z,43.70
2022-12-13T20:51:37.661Z,43.42
2022-12-13T20:54:04.800Z,44.22
2022-12-13T20:56:35.269Z,42.28
2022-12-13T20:59:03.531Z,43.25
2022-12-13T21:01:32.440Z,44.92
2022-12-13T21:04:01.103Z,49.53
2022-12-13T21:06:28.799Z,52.70
2022-12-13T21:08:59.904Z,52.95
2022-12-13T21:11:38.439Z,47.53
2022-12-13T21:14:11.139Z,42.45
2022-12-13T21:16:41.936Z,38.47
2022-12-13T21:30:03.765Z,29.30
2022-12-13T21:32:30.413Z,29.12
2022-12-13T21:38:44.263Z,29.23
2022-12-13T21:41:32.667Z,27.98
2022-12-13T21:44:01.885Z,28.40
2022-12-13T21:46:47.908Z,26.55
2022-12-13T21:49:16.467Z,28.87
2022-12-13T21:57:12.614Z,31.90
2022-12-13T21:59:39.197Z,30.88
2022-12-13T22:02:18.169Z,31.60
2022-12-13T22:04:48.162Z,29.30
2022-12-13T22:29:39.606Z,27.08
2022-12-13T22:32:06.587Z,27.13
2022-12-13T22:34:33.282Z,30.67
2022-12-13T22:37:00.651Z,34.08
2022-12-13T22:39:27.204Z,34.13
2022-12-13T22:41:53.749Z,33.30
2022-12-13T22:44:23.173Z,34.95
2022-12-13T22:46:49.732Z,31.75
2022-12-13T22:49:16.375Z,31.98
2022-12-13T22:51:43.271Z,31.05
2022-12-13T22:54:10.094Z,30.95
2022-12-13T22:56:36.728Z,31.62
2022-12-13T22:59:21.550Z,28.95
2022-12-13T23:01:48.500Z,30.50
2022-12-13T23:04:15.506Z,31.12
2022-12-13T23:06:42.432Z,27.80
2022-12-13T23:51:07.360Z,27.23
2022-12-13T23:53:34.521Z,29.00
2022-12-13T23:56:01.408Z,27.85
